KXNA/XNA METAR and TAF weather

Enter ICAO airport designator
Station Type Date Time Source
KXNA METAR 2018/12/19 09:32 UTC NOAA

KXNA 190932Z AUTO 00000KT 1/4SM R16/1200V1800FT FG VV003 02/00 A2992 RMK AO2 T00220000


Station Type Date Time Source
KXNA Decoded METAR 2018/12/19 09:32 UTC NOAA

NORTHWEST ARKANSAS REGIONAL, AR, United States (KXNA) 36-17N 94-18W
Dec 19, 2018 - 04:32 AM EST / 2018.12.19 0932 UTC
Wind: Calm (direction variable):0
Visibility: 1/4 mile(s):0
Sky conditions: obscured
Weather: fog
Temperature: 36.0 F (2.2 C)
Dew Point: 32.0 F (0.0 C)
Relative Humidity: 85%
Pressure (altimeter): 29.92 in. Hg (1013 hPa)
ob: KXNA 190932Z AUTO 00000KT 1/4SM R16/1200V1800FT FG VV003 02/00 A2992 RMK AO2 T00220000
cycle: 9

Station Type Date Time Source
KXNA TAF 2018/12/19 08:51 UTC NOAA

TAF
AMD KXNA 190749Z 1908/2006 18004KT 3SM BR SCT250
TEMPO 1908/1912 1/4SM FG VV004
FM191500 20010KT P6SM BKN020
FM200200 29008KT P6SM BKN020
TEMPO 2002/2006 5SM -SHRA BR


Example: see airport list